Sontag, MS (39665)

17:01 CDT le 31 Mars 2015 (GMT -0500)
Stronghope | | Change Station
CLOSE
Current Station
Stations météorologiques personnelles
Location: Wesson, MS
Altitude: 269 ft
Stations météo à proximité

Alt. 269 ft 31.72 °N, 90.24 °W | Updated 29 seconds ago

Partiellement nuageux
Partiellement nuageux
81.7 ° F
Paraît 82 ° F
N
2.0
Vent Variable Vent de SSO
Gusts 18.0 mph

Aujourd'hui
Haut(e) -- | Bas -- ° F
--% Risque de précip.
Hier
Haut(e) -- | Bas -- ° F
Precip. -- pouce
6:50 AM 7:19 PM
Lune gibbeuse croissante, 89% visible
Pression 29.99 pouce
Visibilité -9999.0 Miles terrestres
Nuages Peu 5000 ft
indice de chaleur 82 ° F
Point de rosée 61 ° F
Humidité 49%
Précipitations 0.00 pouce
Profondeur de la couche neigeuse Non disponible.
UV 3 sur 12
Pollen 10.50 sur 12
Qualité de l'air Non disponible.
Flu Activity Non disponible.
METAR K1R7 312155Z AUTO 20012G16KT FEW050 27/15 A2999 RMK AO2

More Conditions Fewer Conditions

Pression 29.99 pouce
Visibilité -9999.0 Miles terrestres
Nuages Peu 5000 ft
indice de chaleur 82 ° F
Point de rosée 61 ° F
Humidité 49%
Précipitations 0.00 pouce
Profondeur de la couche neigeuse Non disponible.
UV 3 sur 12
Pollen 10.50 sur 12
Qualité de l'air Non disponible.
Flu Activity Non disponible.
METAR K1R7 312155Z AUTO 20012G16KT FEW050 27/15 A2999 RMK AO2

More Conditions Fewer Conditions

10-Day Weather Forecast

Almanac

Astronomie

Mar. 31, 2015 Lever Coucher
Temps réel
Crépuscule civil
Crépuscule nautique
Crépuscule astronomique
Lune
Durée de lumière visible
Longueur du jour
Tomorrow will be .
, % of the Moon is Illuminated

Extrêmes aujourd'hui

State Highs State Lows

Community

WunderPhotos

Upload Photos

1,809,849 Photos téléchargées !

WunderBlogs® & News

Nearby

Qualité de l'air

  Qualité de l'air Indice de la qualité de l'air Polluant
Not available.

Épaisseur de neige

Station Depth Altitude

Activité sismique

Ville Distance Mag. Time & Date
Minimum magnitude displayed is 2.5.

Températures des eaux côtières

Lieu Température

Stations

Stations météo à proximité

Emplacement de la station Température Refroidissement éolien Point de rosée Humidité Vent Precip. Alt. Mise à jour Type